Eider — V2KA — position and weather

sailwx.info

Track history (hours):
 
Tides and Currents Weather Stations Pressure Air Temp Water Temp Dewpoint Dewpoint Depression Visibility Wind Speed Wind Dir Waves Ship Positions

Eider

Last reported at 2017-Nov-17 20:56 UTC. Time now 2017-Nov-17 22:56 UTC.
Position N 53°25' E 006°57'.

Length 88 m; draft 4.6 m.

Type: Cargo ship. MMSI: 304469000.

Date/timePositionNaut miles runAvg speedWind from/ knotsBaromVisibWave heightAir tempDewpointWater temp
2017-Nov-17 20:56N 53°25' E 006°57'3 8.0
2017-Nov-17 20:30N 53°21' E 006°59'3 6.3
2017-Nov-17 20:00N 53°19' E 007°03'4 7.1
2017-Nov-17 19:30N 53°20' E 007°09'2 2.7
2017-Nov-17 18:54N 53°20' E 007°12'1 0.0
2017-Nov-16 19:18N 53°21' E 007°12'2 1.8
2017-Nov-16 18:26N 53°20' E 007°10'4 9.3
2017-Nov-16 18:00N 53°19' E 007°03'510.6
2017-Nov-16 17:31N 53°23' E 006°58'97 8.4
2017-Nov-16 05:57N 52°58' E 004°21'510.3
2017-Nov-16 05:30N 52°54' E 004°17'510.5
2017-Nov-16 05:00N 52°49' E 004°13'510.7
2017-Nov-16 04:30N 52°45' E 004°08'511.0
2017-Nov-16 04:00N 52°41' E 004°02'9111.3
2017-Nov-15 19:55N 51°34' E 002°21'4 9.5
2017-Nov-15 19:29N 51°31' E 002°17'4 9.0
2017-Nov-15 19:00N 51°27' E 002°14'4 8.9
2017-Nov-15 18:31N 51°23' E 002°11'4 7.3
2017-Nov-15 18:00N 51°20' E 002°09'4 8.8
2017-Nov-15 17:30N 51°16' E 002°05'4 8.4
2017-Nov-15 17:00N 51°13' E 002°01'4 8.8
2017-Nov-15 16:31N 51°10' E 001°55'4 8.8
2017-Nov-15 16:00N 51°07' E 001°49'4 8.8
2017-Nov-15 15:30N 51°05' E 001°44'5 9.1
2017-Nov-15 14:59N 51°01' E 001°39'5 9.5
2017-Nov-15 14:30N 50°58' E 001°34'5 9.7
2017-Nov-15 14:00N 50°54' E 001°29'10510.7
2017-Nov-15 04:13N 50°08' W 000°59'312.0
2017-Nov-15 04:01N 50°07' W 001°03'611.7
2017-Nov-15 03:30N 50°06' W 001°12'611.1
2017-Nov-15 03:00N 50°04' W 001°20'510.4
2017-Nov-15 02:30N 50°03' W 001°28'5 9.7
2017-Nov-15 02:00N 50°02' W 001°35'4 8.9
2017-Nov-15 01:30N 50°00' W 001°42'4 8.3
2017-Nov-15 01:00N 49°59' W 001°48'4 7.8
2017-Nov-15 00:31N 49°58' W 001°54'56 8.8
2017-Nov-14 18:12N 49°39' W 003°15'511.0
2017-Nov-14 17:47N 49°37' W 003°21'511.0
2017-Nov-14 17:20N 49°34' W 003°28'410.9
2017-Nov-14 16:58N 49°32' W 003°33'711.0
2017-Nov-14 16:17N 49°29' W 003°43'411.3
2017-Nov-14 15:55N 49°26' W 003°48'511.4
2017-Nov-14 15:29N 49°24' W 003°55'611.4
2017-Nov-14 15:00N 49°21' W 004°02'711.6
2017-Nov-14 14:24N 49°17' W 004°11'911.5
2017-Nov-14 13:37N 49°13' W 004°23'211.8
2017-Nov-14 13:28N 49°12' W 004°25'811.6
2017-Nov-14 12:45N 49°08' W 004°36'311.5
2017-Nov-14 12:31N 49°06' W 004°40'611.5
2017-Nov-14 11:57N 49°03' W 004°49'611.6
2017-Nov-14 11:28N 49°01' W 004°56'2410.9
2017-Nov-14 09:14N 48°49' W 005°29'510.1
2017-Nov-14 08:42N 48°46' W 005°35'12 9.9
2017-Nov-14 07:27N 48°34' W 005°44'4 9.8
2017-Nov-14 07:00N 48°30' W 005°44'5 9.6
2017-Nov-14 06:28N 48°25' W 005°45'10 9.2
2017-Nov-14 05:19N 48°14' W 005°46'17 9.3
2017-Nov-14 03:30N 47°58' W 005°46'5 9.4
2017-Nov-14 02:58N 47°53' W 005°46'5 9.6
2017-Nov-14 02:25N 47°47' W 005°46'11 9.8
2017-Nov-14 01:17N 47°36' W 005°47'410.0
2017-Nov-14 00:51N 47°32' W 005°47'610.2
2017-Nov-14 00:13N 47°25' W 005°47'310.5
2017-Nov-13 23:59N 47°23' W 005°47'224 8.4
2017-Nov-12 21:15N 43°39' W 005°58'3 7.2
2017-Nov-12 20:52N 43°36' W 005°59'  
2017-Nov-10 14:33N 43°37' W 005°57'3 8.2
2017-Nov-10 14:15N 43°39' W 005°55'3 8.7
2017-Nov-10 13:54N 43°41' W 005°52'4 7.9
2017-Nov-10 13:27N 43°43' W 005°48'4 8.2
2017-Nov-10 13:00N 43°42' W 005°42'4 7.9
2017-Nov-10 12:28N 43°42' W 005°37'4 8.0
2017-Nov-10 11:55N 43°42' W 005°31'5 8.2
2017-Nov-10 11:20N 43°41' W 005°24'3 8.2
2017-Nov-10 10:58N 43°41' W 005°20'44 8.3
2017-Nov-10 05:38N 43°36' W 004°19'1 8.2
2017-Nov-10 05:30N 43°36' W 004°18'4 8.2
2017-Nov-10 05:00N 43°36' W 004°12'4 8.2
2017-Nov-10 04:30N 43°36' W 004°06'4 8.1
2017-Nov-10 04:00N 43°35' W 004°01'4 8.3
2017-Nov-10 03:31N 43°35' W 003°55'4 8.3
2017-Nov-10 03:01N 43°34' W 003°50'4 8.2
2017-Nov-10 02:31N 43°34' W 003°44'4 8.0
2017-Nov-10 02:00N 43°34' W 003°38'4 7.9
2017-Nov-10 01:30N 43°33' W 003°33'4 8.1
2017-Nov-10 01:01N 43°33' W 003°27'4 8.3
2017-Nov-10 00:30N 43°33' W 003°22'4 8.3
2017-Nov-10 00:01N 43°33' W 003°16'4 8.4
2017-Nov-09 23:30N 43°33' W 003°10'4 8.5
2017-Nov-09 23:01N 43°33' W 003°04'4 8.4
2017-Nov-09 22:31N 43°33' W 002°59'4 8.1
2017-Nov-09 22:01N 43°33' W 002°53'4 7.9
2017-Nov-09 21:31N 43°33' W 002°48'4 7.4
2017-Nov-09 21:01N 43°32' W 002°42'4 8.3
2017-Nov-09 20:31N 43°33' W 002°37'4 8.2
2017-Nov-09 20:01N 43°33' W 002°31'4 8.0
2017-Nov-09 19:31N 43°33' W 002°26'4 8.1
2017-Nov-09 19:01N 43°32' W 002°20'4 8.1
2017-Nov-09 18:31N 43°32' W 002°14'4 8.1
2017-Nov-09 18:01N 43°32' W 002°09'4 8.0
2017-Nov-09 17:31N 43°32' W 002°03'4 7.8
2017-Nov-09 17:01N 43°32' W 001°58'4 7.7
2017-Nov-09 16:31N 43°32' W 001°53'4 7.6
2017-Nov-09 16:00N 43°32' W 001°47'4 7.5
2017-Nov-09 15:31N 43°32' W 001°42'4 7.6
2017-Nov-09 15:01N 43°32' W 001°37'3 6.8
2017-Nov-09 14:31N 43°32' W 001°32'2 3.1
2017-Nov-09 13:59N 43°32' W 001°30'0 0.0
2017-Nov-09 13:29N 43°32' W 001°30'0 0.0
2017-Nov-09 12:59N 43°32' W 001°30'0 0.0
2017-Nov-09 12:29N 43°32' W 001°30'0 0.0
2017-Nov-09 11:59N 43°32' W 001°30'0 0.0
2017-Nov-09 11:29N 43°32' W 001°30'0 0.0
2017-Nov-09 10:59N 43°32' W 001°30'0 0.0
2017-Nov-09 10:29N 43°32' W 001°30'0 0.0
2017-Nov-09 09:59N 43°32' W 001°30'0 0.0
2017-Nov-09 09:29N 43°32' W 001°30'0 0.0
2017-Nov-09 08:59N 43°32' W 001°30'0 0.0
2017-Nov-09 08:29N 43°32' W 001°30'0 0.0
2017-Nov-09 07:59N 43°32' W 001°30'0 0.0
2017-Nov-09 07:29N 43°32' W 001°30'0 0.0
2017-Nov-09 06:59N 43°32' W 001°30'0 0.0
2017-Nov-09 06:29N 43°32' W 001°30'0 0.0
2017-Nov-09 05:59N 43°32' W 001°30'0 0.0
2017-Nov-09 05:29N 43°32' W 001°30'0 0.0
2017-Nov-09 04:59N 43°32' W 001°30'0 0.0
2017-Nov-09 04:29N 43°32' W 001°30'0 0.0
2017-Nov-09 03:59N 43°32' W 001°30'0 0.0
2017-Nov-09 03:29N 43°32' W 001°30'0 0.0
2017-Nov-09 02:59N 43°32' W 001°30'0 0.0
2017-Nov-09 02:29N 43°32' W 001°30'0 0.0
2017-Nov-09 01:59N 43°32' W 001°30'0 0.0
2017-Nov-09 01:29N 43°32' W 001°30'0 0.0
2017-Nov-09 00:59N 43°32' W 001°30'0 0.0
2017-Nov-09 00:29N 43°32' W 001°30'0 0.0
2017-Nov-08 23:59N 43°32' W 001°30'0 0.0
2017-Nov-08 23:29N 43°32' W 001°30'0 0.0
2017-Nov-08 22:59N 43°32' W 001°30'0 0.0
2017-Nov-08 22:29N 43°32' W 001°30'0 0.0
2017-Nov-08 21:59N 43°32' W 001°30'0 0.0
2017-Nov-08 21:29N 43°32' W 001°30'0 0.0
2017-Nov-08 20:59N 43°32' W 001°30'0 0.0
2017-Nov-08 20:29N 43°32' W 001°30'0 0.0
2017-Nov-08 19:59N 43°32' W 001°30'0 0.0
2017-Nov-08 19:29N 43°32' W 001°30'0 0.0
2017-Nov-08 18:59N 43°32' W 001°30'0 0.0
2017-Nov-08 18:29N 43°32' W 001°30'0 0.0
2017-Nov-08 17:59N 43°32' W 001°30'0 0.0
2017-Nov-08 17:29N 43°32' W 001°30'0 0.0
2017-Nov-08 16:59N 43°32' W 001°30'0 0.0
2017-Nov-08 16:29N 43°32' W 001°30'0 0.0
2017-Nov-08 15:59N 43°32' W 001°30'0 0.0
2017-Nov-08 15:29N 43°32' W 001°30'0 0.0
2017-Nov-08 14:59N 43°32' W 001°30'0 0.0
2017-Nov-08 14:29N 43°32' W 001°30'0 0.0
2017-Nov-08 13:59N 43°32' W 001°30'0 0.0
2017-Nov-08 13:29N 43°32' W 001°30'0 0.0
2017-Nov-08 12:59N 43°32' W 001°30'0 0.0
2017-Nov-08 12:29N 43°32' W 001°30'0 0.0
2017-Nov-08 11:59N 43°32' W 001°30'0 0.0
2017-Nov-08 11:29N 43°32' W 001°30'0 0.0
2017-Nov-08 10:59N 43°32' W 001°30'0 0.0
2017-Nov-08 10:29N 43°32' W 001°30'0 0.0
2017-Nov-08 09:59N 43°32' W 001°30'0 0.0
2017-Nov-08 09:29N 43°32' W 001°30'0 0.0
2017-Nov-08 08:59N 43°32' W 001°30'0 0.0
2017-Nov-08 08:29N 43°32' W 001°30'0 0.0
2017-Nov-08 07:59N 43°32' W 001°30'0 0.0
2017-Nov-08 07:29N 43°32' W 001°30'0 0.0
2017-Nov-08 06:59N 43°32' W 001°30'0 0.0
2017-Nov-08 06:29N 43°32' W 001°30'0 0.0
2017-Nov-08 05:59N 43°32' W 001°30'0 0.0
2017-Nov-08 05:29N 43°32' W 001°30'0 0.0
2017-Nov-08 04:59N 43°32' W 001°30'0 0.1
2017-Nov-08 04:30N 43°32' W 001°30'3 5.9
2017-Nov-08 04:00N 43°33' W 001°34'2 4.3
2017-Nov-08 03:30N 43°35' W 001°35'3 6.6
2017-Nov-08 03:00N 43°38' W 001°37'3 6.8
2017-Nov-08 02:30N 43°42' W 001°37'3 7.0
2017-Nov-08 02:00N 43°45' W 001°37'4 7.5
2017-Nov-08 01:30N 43°49' W 001°37'4 7.2
2017-Nov-08 01:00N 43°52' W 001°37'4 7.1
2017-Nov-08 00:30N 43°56' W 001°37'4 7.4
2017-Nov-08 00:00N 43°60' W 001°37'  
Track history (hours):
 
Tides and Currents Weather Stations Pressure Air Temp Water Temp Dewpoint Dewpoint Depression Visibility Wind Speed Wind Dir Waves Ship Positions

Eider

Last reported at 2017-Nov-17 20:56 UTC. Time now 2017-Nov-17 22:56 UTC.
Position N 53°25' E 006°57'.

Length 88 m; draft 4.6 m.

Type: Cargo ship. MMSI: 304469000.

Date/timePositionNaut miles runAvg speedWind from/ knotsBaromVisibWave heightAir tempDewpointWater temp
2017-Nov-17 20:56N 53°25' E 006°57'3 8.0
2017-Nov-17 20:30N 53°21' E 006°59'3 6.3
2017-Nov-17 20:00N 53°19' E 007°03'4 7.1
2017-Nov-17 19:30N 53°20' E 007°09'2 2.7
2017-Nov-17 18:54N 53°20' E 007°12'1 0.0
2017-Nov-16 19:18N 53°21' E 007°12'2 1.8
2017-Nov-16 18:26N 53°20' E 007°10'4 9.3
2017-Nov-16 18:00N 53°19' E 007°03'510.6
2017-Nov-16 17:31N 53°23' E 006°58'97 8.4
2017-Nov-16 05:57N 52°58' E 004°21'510.3
2017-Nov-16 05:30N 52°54' E 004°17'510.5
2017-Nov-16 05:00N 52°49' E 004°13'510.7
2017-Nov-16 04:30N 52°45' E 004°08'511.0
2017-Nov-16 04:00N 52°41' E 004°02'9111.3
2017-Nov-15 19:55N 51°34' E 002°21'4 9.5
2017-Nov-15 19:29N 51°31' E 002°17'4 9.0
2017-Nov-15 19:00N 51°27' E 002°14'4 8.9
2017-Nov-15 18:31N 51°23' E 002°11'4 7.3
2017-Nov-15 18:00N 51°20' E 002°09'4 8.8
2017-Nov-15 17:30N 51°16' E 002°05'4 8.4
2017-Nov-15 17:00N 51°13' E 002°01'4 8.8
2017-Nov-15 16:31N 51°10' E 001°55'4 8.8
2017-Nov-15 16:00N 51°07' E 001°49'4 8.8
2017-Nov-15 15:30N 51°05' E 001°44'5 9.1
2017-Nov-15 14:59N 51°01' E 001°39'5 9.5
2017-Nov-15 14:30N 50°58' E 001°34'5 9.7
2017-Nov-15 14:00N 50°54' E 001°29'10510.7
2017-Nov-15 04:13N 50°08' W 000°59'312.0
2017-Nov-15 04:01N 50°07' W 001°03'611.7
2017-Nov-15 03:30N 50°06' W 001°12'611.1
2017-Nov-15 03:00N 50°04' W 001°20'510.4
2017-Nov-15 02:30N 50°03' W 001°28'5 9.7
2017-Nov-15 02:00N 50°02' W 001°35'4 8.9
2017-Nov-15 01:30N 50°00' W 001°42'4 8.3
2017-Nov-15 01:00N 49°59' W 001°48'4 7.8
2017-Nov-15 00:31N 49°58' W 001°54'56 8.8
2017-Nov-14 18:12N 49°39' W 003°15'511.0
2017-Nov-14 17:47N 49°37' W 003°21'511.0
2017-Nov-14 17:20N 49°34' W 003°28'410.9
2017-Nov-14 16:58N 49°32' W 003°33'711.0
2017-Nov-14 16:17N 49°29' W 003°43'411.3
2017-Nov-14 15:55N 49°26' W 003°48'511.4
2017-Nov-14 15:29N 49°24' W 003°55'611.4
2017-Nov-14 15:00N 49°21' W 004°02'711.6
2017-Nov-14 14:24N 49°17' W 004°11'911.5
2017-Nov-14 13:37N 49°13' W 004°23'211.8
2017-Nov-14 13:28N 49°12' W 004°25'811.6
2017-Nov-14 12:45N 49°08' W 004°36'311.5
2017-Nov-14 12:31N 49°06' W 004°40'611.5
2017-Nov-14 11:57N 49°03' W 004°49'611.6
2017-Nov-14 11:28N 49°01' W 004°56'2410.9
2017-Nov-14 09:14N 48°49' W 005°29'510.1
2017-Nov-14 08:42N 48°46' W 005°35'12 9.9
2017-Nov-14 07:27N 48°34' W 005°44'4 9.8
2017-Nov-14 07:00N 48°30' W 005°44'5 9.6
2017-Nov-14 06:28N 48°25' W 005°45'10 9.2
2017-Nov-14 05:19N 48°14' W 005°46'17 9.3
2017-Nov-14 03:30N 47°58' W 005°46'5 9.4
2017-Nov-14 02:58N 47°53' W 005°46'5 9.6
2017-Nov-14 02:25N 47°47' W 005°46'11 9.8
2017-Nov-14 01:17N 47°36' W 005°47'410.0
2017-Nov-14 00:51N 47°32' W 005°47'610.2
2017-Nov-14 00:13N 47°25' W 005°47'310.5
2017-Nov-13 23:59N 47°23' W 005°47'224 8.4
2017-Nov-12 21:15N 43°39' W 005°58'3 7.2
2017-Nov-12 20:52N 43°36' W 005°59'  
2017-Nov-10 14:33N 43°37' W 005°57'3 8.2
2017-Nov-10 14:15N 43°39' W 005°55'3 8.7
2017-Nov-10 13:54N 43°41' W 005°52'4 7.9
2017-Nov-10 13:27N 43°43' W 005°48'4 8.2
2017-Nov-10 13:00N 43°42' W 005°42'4 7.9
2017-Nov-10 12:28N 43°42' W 005°37'4 8.0
2017-Nov-10 11:55N 43°42' W 005°31'5 8.2
2017-Nov-10 11:20N 43°41' W 005°24'3 8.2
2017-Nov-10 10:58N 43°41' W 005°20'44 8.3
2017-Nov-10 05:38N 43°36' W 004°19'1 8.2
2017-Nov-10 05:30N 43°36' W 004°18'4 8.2
2017-Nov-10 05:00N 43°36' W 004°12'4 8.2
2017-Nov-10 04:30N 43°36' W 004°06'4 8.1
2017-Nov-10 04:00N 43°35' W 004°01'4 8.3
2017-Nov-10 03:31N 43°35' W 003°55'4 8.3
2017-Nov-10 03:01N 43°34' W 003°50'4 8.2
2017-Nov-10 02:31N 43°34' W 003°44'4 8.0
2017-Nov-10 02:00N 43°34' W 003°38'4 7.9
2017-Nov-10 01:30N 43°33' W 003°33'4 8.1
2017-Nov-10 01:01N 43°33' W 003°27'4 8.3
2017-Nov-10 00:30N 43°33' W 003°22'4 8.3
2017-Nov-10 00:01N 43°33' W 003°16'4 8.4
2017-Nov-09 23:30N 43°33' W 003°10'4 8.5
2017-Nov-09 23:01N 43°33' W 003°04'4 8.4
2017-Nov-09 22:31N 43°33' W 002°59'4 8.1
2017-Nov-09 22:01N 43°33' W 002°53'4 7.9
2017-Nov-09 21:31N 43°33' W 002°48'4 7.4
2017-Nov-09 21:01N 43°32' W 002°42'4 8.3
2017-Nov-09 20:31N 43°33' W 002°37'4 8.2
2017-Nov-09 20:01N 43°33' W 002°31'4 8.0
2017-Nov-09 19:31N 43°33' W 002°26'4 8.1
2017-Nov-09 19:01N 43°32' W 002°20'4 8.1
2017-Nov-09 18:31N 43°32' W 002°14'4 8.1
2017-Nov-09 18:01N 43°32' W 002°09'4 8.0
2017-Nov-09 17:31N 43°32' W 002°03'4 7.8
2017-Nov-09 17:01N 43°32' W 001°58'4 7.7
2017-Nov-09 16:31N 43°32' W 001°53'4 7.6
2017-Nov-09 16:00N 43°32' W 001°47'4 7.5
2017-Nov-09 15:31N 43°32' W 001°42'4 7.6
2017-Nov-09 15:01N 43°32' W 001°37'3 6.8
2017-Nov-09 14:31N 43°32' W 001°32'2 3.1
2017-Nov-09 13:59N 43°32' W 001°30'0 0.0
2017-Nov-09 13:29N 43°32' W 001°30'0 0.0
2017-Nov-09 12:59N 43°32' W 001°30'0 0.0
2017-Nov-09 12:29N 43°32' W 001°30'0 0.0
2017-Nov-09 11:59N 43°32' W 001°30'0 0.0
2017-Nov-09 11:29N 43°32' W 001°30'0 0.0
2017-Nov-09 10:59N 43°32' W 001°30'0 0.0
2017-Nov-09 10:29N 43°32' W 001°30'0 0.0
2017-Nov-09 09:59N 43°32' W 001°30'0 0.0
2017-Nov-09 09:29N 43°32' W 001°30'0 0.0
2017-Nov-09 08:59N 43°32' W 001°30'0 0.0
2017-Nov-09 08:29N 43°32' W 001°30'0 0.0
2017-Nov-09 07:59N 43°32' W 001°30'0 0.0
2017-Nov-09 07:29N 43°32' W 001°30'0 0.0
2017-Nov-09 06:59N 43°32' W 001°30'0 0.0
2017-Nov-09 06:29N 43°32' W 001°30'0 0.0
2017-Nov-09 05:59N 43°32' W 001°30'0 0.0
2017-Nov-09 05:29N 43°32' W 001°30'0 0.0
2017-Nov-09 04:59N 43°32' W 001°30'0 0.0
2017-Nov-09 04:29N 43°32' W 001°30'0 0.0
2017-Nov-09 03:59N 43°32' W 001°30'0 0.0
2017-Nov-09 03:29N 43°32' W 001°30'0 0.0
2017-Nov-09 02:59N 43°32' W 001°30'0 0.0
2017-Nov-09 02:29N 43°32' W 001°30'0 0.0
2017-Nov-09 01:59N 43°32' W 001°30'0 0.0
2017-Nov-09 01:29N 43°32' W 001°30'0 0.0
2017-Nov-09 00:59N 43°32' W 001°30'0 0.0
2017-Nov-09 00:29N 43°32' W 001°30'0 0.0
2017-Nov-08 23:59N 43°32' W 001°30'0 0.0
2017-Nov-08 23:29N 43°32' W 001°30'0 0.0
2017-Nov-08 22:59N 43°32' W 001°30'0 0.0
2017-Nov-08 22:29N 43°32' W 001°30'0 0.0
2017-Nov-08 21:59N 43°32' W 001°30'0 0.0
2017-Nov-08 21:29N 43°32' W 001°30'0 0.0
2017-Nov-08 20:59N 43°32' W 001°30'0 0.0
2017-Nov-08 20:29N 43°32' W 001°30'0 0.0
2017-Nov-08 19:59N 43°32' W 001°30'0 0.0
2017-Nov-08 19:29N 43°32' W 001°30'0 0.0
2017-Nov-08 18:59N 43°32' W 001°30'0 0.0
2017-Nov-08 18:29N 43°32' W 001°30'0 0.0
2017-Nov-08 17:59N 43°32' W 001°30'0 0.0
2017-Nov-08 17:29N 43°32' W 001°30'0 0.0
2017-Nov-08 16:59N 43°32' W 001°30'0 0.0
2017-Nov-08 16:29N 43°32' W 001°30'0 0.0
2017-Nov-08 15:59N 43°32' W 001°30'0 0.0
2017-Nov-08 15:29N 43°32' W 001°30'0 0.0
2017-Nov-08 14:59N 43°32' W 001°30'0 0.0
2017-Nov-08 14:29N 43°32' W 001°30'0 0.0
2017-Nov-08 13:59N 43°32' W 001°30'0 0.0
2017-Nov-08 13:29N 43°32' W 001°30'0 0.0
2017-Nov-08 12:59N 43°32' W 001°30'0 0.0
2017-Nov-08 12:29N 43°32' W 001°30'0 0.0
2017-Nov-08 11:59N 43°32' W 001°30'0 0.0
2017-Nov-08 11:29N 43°32' W 001°30'0 0.0
2017-Nov-08 10:59N 43°32' W 001°30'0 0.0
2017-Nov-08 10:29N 43°32' W 001°30'0 0.0
2017-Nov-08 09:59N 43°32' W 001°30'0 0.0
2017-Nov-08 09:29N 43°32' W 001°30'0 0.0
2017-Nov-08 08:59N 43°32' W 001°30'0 0.0
2017-Nov-08 08:29N 43°32' W 001°30'0 0.0
2017-Nov-08 07:59N 43°32' W 001°30'0 0.0
2017-Nov-08 07:29N 43°32' W 001°30'0 0.0
2017-Nov-08 06:59N 43°32' W 001°30'0 0.0
2017-Nov-08 06:29N 43°32' W 001°30'0 0.0
2017-Nov-08 05:59N 43°32' W 001°30'0 0.0
2017-Nov-08 05:29N 43°32' W 001°30'0 0.0
2017-Nov-08 04:59N 43°32' W 001°30'0 0.1
2017-Nov-08 04:30N 43°32' W 001°30'3 5.9
2017-Nov-08 04:00N 43°33' W 001°34'2 4.3
2017-Nov-08 03:30N 43°35' W 001°35'3 6.6
2017-Nov-08 03:00N 43°38' W 001°37'3 6.8
2017-Nov-08 02:30N 43°42' W 001°37'3 7.0
2017-Nov-08 02:00N 43°45' W 001°37'4 7.5
2017-Nov-08 01:30N 43°49' W 001°37'4 7.2
2017-Nov-08 01:00N 43°52' W 001°37'4 7.1
2017-Nov-08 00:30N 43°56' W 001°37'4 7.4
2017-Nov-08 00:00N 43°60' W 001°37'  

Dump ship's entire track history